메인 페이지
METAR-TAF:

METAR-TAF

공항 :

볼고그라드, 러시아

위도: 48-47N, 경도: 044-22E, 고도: 145m

현재 날씨관측

예보는 28분 전, 15:00시(UTC)에 발표되었습니다.
서북서6kt
온도 0°C
습도 93%
기압 1021 hPa
시정: 0700m
어는 안개

METAR: URWW 111500Z 30003MPS 0750 0700SW R06/1500D FZFG VV002 M00/M01 Q1021 R06/290060 TEMPO 0300 FZFG RMK QBB060 OBST OBSC

시각: 19:28 (15:28 UTC)

예보

예보는 1 시간 28분 전, 14:00시(UTC)에 발표되었습니다.
예보 대상 시간: 11일 15시부터 11일 24시까지 (UTC)
서북서6kt
시정: 0300m
고도 200ft 상공 흐림
어는 안개
일시적
11일 15시부터 11일 24시까지 (UTC)
북북서6kt, 순간 최대 풍속 16kt
시정: 3100m
(약한) 결빙, 이슬비, 박무

TAF: URWW 111400Z 1115/1124 30003MPS 0300 FZFG OVC002 TEMPO 1115/1124 33003G08MPS 3100 -FZDZ BR

4,000개 이상의 공항 관측 자료 및 예보 (METAR 및 TAF 보고).

지도상에서 검색 가능한 기상관측소가 노란 점과 빨간 점으로 표시되어 있습니다.

기상관측소 명을 보려면 표시 위로 마우스를 이동하세요.

날씨 관측과 예보를 보려면 클릭하세요.

지도 변경 : 확대하려면 엑스 표시가 있는 녹색 버튼, 축소하려면 빼기 표시가 있는 녹색 버튼, 다음 페이지의 지도를 보려면 녹색 화살표를 클릭하세요.


METAR-TAF: